• Join FlightAware (Why Join?)
  • Login
  • US Flag 
08:59AM EDT


 

Airport Tracker/Info


-or-


 

Live Flight TrackerFlight Track Log ✈ N290CD ✈ 08-May-2013 ✈ KCLT - KILM

Flight Track Log - Related Links

Times and Time Zones

All times are in EDT time to prevent confusion due to time zone crossing. See the N290CD flight status page for this flight to view local times or setup timezone preferences in your user account.

Time Position Orientation Groundspeed Altitude Reporting Facility
EDT Latitude Longitude Course Direction KTS MPH feet Rate Location/Type
04:41PM 35.1981 -80.8872 91° East 119 137 1,800  Level Atlanta Center
04:42PM 35.2031 -80.8436 82° East 121 139 2,300 480 Climbing Atlanta Center
04:43PM 35.1978 -80.8008 99° East 130 150 2,900 240 Climbing Atlanta Center
04:44PM 35.1844 -80.7656 115° Southeast 119 137 2,900 540 Level Atlanta Center
04:45PM 35.1728 -80.7256 110° East 122 140 4,100 840 Climbing Atlanta Center
04:46PM 35.1234 -80.6430 109° East  Level Estimated
04:46PM 35.1592 -80.6828 111° Southeast 127 146 4,700  Level Atlanta Center
04:47PM 35.1453 -80.6353 110° East 143 165 5,000 120 Climbing Atlanta Center
04:48PM 35.1294 -80.5875 112° Southeast 162 186 5,000  Level Atlanta Center
04:50PM 35.0972 -80.4822 110° East 160 184 5,000  Level Atlanta Center
04:51PM 35.0831 -80.4322 109° East 159 183 5,000  Level Atlanta Center
04:52PM 35.0669 -80.3794 110° East 159 183 5,000  Level Atlanta Center
04:53PM 35.0508 -80.3294 111° Southeast 156 180 5,000  Level Atlanta Center
04:54PM 35.0369 -80.2794 109° East 158 182 5,000  Level Atlanta Center
04:56PM 35.0090 -80.2162 118° Southeast  Level FlightAware Approximate
05:03PM 34.8876 -79.8823 111° Southeast  Level FlightAware Approximate
05:04PM 34.8725 -79.8338 111° Southeast  Level FlightAware Approximate
05:05PM 34.8574 -79.7853 111° Southeast  Level FlightAware Approximate
05:06PM 34.8422 -79.7369 111° Southeast  Level FlightAware Approximate
05:07PM 34.8270 -79.6884 111° Southeast  Level FlightAware Approximate
05:08PM 34.8119 -79.6400 111° Southeast  Level FlightAware Approximate
05:09PM 34.7966 -79.5916 111° Southeast  Level FlightAware Approximate
05:10PM 34.7814 -79.5432 111° Southeast  Level FlightAware Approximate
05:11PM 34.7662 -79.4949 111° Southeast  Level FlightAware Approximate
05:12PM 34.7509 -79.4465 111° Southeast  Level FlightAware Approximate
05:13PM 34.7356 -79.3982 111° Southeast  Level FlightAware Approximate
05:14PM 34.7203 -79.3499 111° Southeast  Level FlightAware Approximate
05:15PM 34.7050 -79.3016 111° Southeast  Level FlightAware Approximate
05:16PM 34.6897 -79.2533 111° Southeast  Level FlightAware Approximate
05:17PM 34.6749 -79.2048 110° East  Level FlightAware Approximate
05:18PM 34.6606 -79.1561 110° East  Level FlightAware Approximate
05:19PM 34.6462 -79.1074 110° East  Level FlightAware Approximate
05:20PM 34.6318 -79.0587 110° East  Level FlightAware Approximate
05:21PM 34.6174 -79.0100 110° East  Level FlightAware Approximate
05:22PM 34.6030 -78.9614 110° East  Level FlightAware Approximate
05:23PM 34.5885 -78.9128 110° East  Level FlightAware Approximate
05:24PM 34.5741 -78.8642 110° East  Level FlightAware Approximate
05:25PM 34.5596 -78.8156 110° East  Level FlightAware Approximate
05:26PM 34.5451 -78.7670 110° East  Level FlightAware Approximate
05:27PM 34.5305 -78.7185 110° East  Level FlightAware Approximate
05:28PM 34.5160 -78.6699 110° East  Level FlightAware Approximate
05:29PM 34.5014 -78.6214 110° East  Level FlightAware Approximate
05:30PM 34.4857 -78.5735 112° Southeast  Level FlightAware Approximate
05:31PM 34.4698 -78.5256 112° Southeast  Level FlightAware Approximate
05:32PM 34.4539 -78.4777 112° Southeast  Level FlightAware Approximate
05:33PM 34.4380 -78.4299 112° Southeast  Level FlightAware Approximate
05:34PM 34.4220 -78.3820 112° Southeast  Level FlightAware Approximate
05:35PM 34.4060 -78.3342 112° Southeast  Level FlightAware Approximate
05:36PM 34.3900 -78.2864 112° Southeast  Level FlightAware Approximate
05:37PM 34.3740 -78.2386 112° Southeast  Level FlightAware Approximate
05:38PM 34.3592 -78.1904 109° East  Level FlightAware Approximate
05:39PM 34.3453 -78.1416 109° East  Level FlightAware Approximate
05:40PM 34.3314 -78.0929 109° East  Level FlightAware Approximate
05:41PM 34.3175 -78.0443 109° East  Level FlightAware Approximate
05:42PM 34.3035 -77.9956 109° East  Level FlightAware Approximate
05:43PM 34.2861 -77.9486 116° Southeast  Level FlightAware Approximate
05:44PM 34.2676 -77.9023 116° Southeast  Level FlightAware Approximate
05:45PM 34.2667 -77.9000 116° Southeast  Level FlightAware Approximate
05:46PM 34.2706 -77.9026 116° Southeast  Level Estimated